createdAt,value
2022-11-08T00:00:05.196Z,23.23
2022-11-08T00:02:31.712Z,16.45
2022-11-08T00:04:58.458Z,12.55
2022-11-08T00:07:43.283Z,16.10
2022-11-08T00:10:28.581Z,15.30
2022-11-08T00:13:13.576Z,11.48
2022-11-08T00:15:39.932Z,14.18
2022-11-08T00:18:07.583Z,13.82
2022-11-08T00:20:34.525Z,16.15
2022-11-08T00:23:01.361Z,17.75
2022-11-08T00:25:27.793Z,16.58
2022-11-08T00:27:57.537Z,15.70
2022-11-08T00:30:23.885Z,15.90
2022-11-08T00:32:50.321Z,19.23
2022-11-08T00:35:16.678Z,12.02
2022-11-08T00:37:43.523Z,14.93
2022-11-08T00:40:10.555Z,18.63
2022-11-08T00:42:36.973Z,15.90
2022-11-08T00:45:03.689Z,13.38
2022-11-08T00:47:30.136Z,15.30
2022-11-08T00:49:56.594Z,16.50
2022-11-08T00:52:23.087Z,17.98
2022-11-08T00:54:49.474Z,14.98
2022-11-08T00:57:16.602Z,14.85
2022-11-08T00:59:43.096Z,16.13
2022-11-08T01:02:09.500Z,13.13
2022-11-08T01:04:36.076Z,12.93
2022-11-08T01:07:02.787Z,16.92
2022-11-08T01:09:29.216Z,15.05
2022-11-08T01:11:55.646Z,20.23
2022-11-08T01:14:22.030Z,14.05
2022-11-08T01:16:48.406Z,18.45
2022-11-08T01:19:14.795Z,21.52
2022-11-08T01:21:41.566Z,16.25
2022-11-08T01:24:08.396Z,20.23
2022-11-08T01:26:34.917Z,19.20
2022-11-08T01:29:01.419Z,18.35
2022-11-08T01:31:30.598Z,16.70
2022-11-08T01:33:58.047Z,12.27
2022-11-08T01:36:26.419Z,15.32
2022-11-08T01:38:53.501Z,18.20
2022-11-08T01:41:22.087Z,18.10
2022-11-08T01:43:49.874Z,17.10
2022-11-08T01:46:19.234Z,17.20
2022-11-08T01:48:58.720Z,15.07
2022-11-08T01:51:33.506Z,11.80
2022-11-08T01:54:03.131Z,13.35
2022-11-08T01:56:29.936Z,11.30
2022-11-08T01:58:57.713Z,19.65
2022-11-08T02:01:24.414Z,17.50
2022-11-08T02:03:51.478Z,16.55
2022-11-08T02:06:18.683Z,19.52
2022-11-08T02:08:46.079Z,17.70
2022-11-08T02:11:17.672Z,17.48
2022-11-08T02:13:44.326Z,15.02
2022-11-08T02:16:15.926Z,16.90
2022-11-08T02:18:44.896Z,15.70
2022-11-08T02:21:35.957Z,18.80
2022-11-08T02:24:07.966Z,19.48
2022-11-08T02:26:36.215Z,23.00
2022-11-08T02:29:22.128Z,15.55
2022-11-08T02:31:48.570Z,14.40
2022-11-08T02:34:15.318Z,20.02
2022-11-08T02:36:44.035Z,17.42
2022-11-08T02:39:10.517Z,14.50
2022-11-08T02:41:36.938Z,13.48
2022-11-08T02:44:03.426Z,15.70
2022-11-08T02:46:29.835Z,15.85
2022-11-08T02:48:56.703Z,17.67
2022-11-08T02:51:23.094Z,18.80
2022-11-08T02:53:49.486Z,15.05
2022-11-08T02:56:16.245Z,17.65
2022-11-08T02:58:42.636Z,15.43
2022-11-08T03:01:09.028Z,11.82
2022-11-08T03:03:35.421Z,16.60
2022-11-08T03:06:01.908Z,13.23
2022-11-08T03:08:28.294Z,19.55
2022-11-08T03:10:54.672Z,18.77
2022-11-08T03:13:21.036Z,15.68
2022-11-08T03:15:47.446Z,11.95
2022-11-08T03:18:13.826Z,16.48
2022-11-08T03:20:40.402Z,14.85
2022-11-08T03:23:07.057Z,20.50
2022-11-08T03:25:34.854Z,17.25
2022-11-08T03:28:05.768Z,19.23
2022-11-08T03:30:33.129Z,15.18
2022-11-08T03:32:59.728Z,22.05
2022-11-08T03:35:26.529Z,15.43
2022-11-08T03:37:55.396Z,15.93
2022-11-08T03:40:22.961Z,14.02
2022-11-08T03:42:49.631Z,19.17
2022-11-08T03:45:16.378Z,12.73
2022-11-08T03:47:44.208Z,17.45
2022-11-08T03:50:12.095Z,17.45
2022-11-08T03:52:46.584Z,15.52
2022-11-08T03:55:13.236Z,18.27
2022-11-08T03:57:40.879Z,18.80
2022-11-08T04:00:10.600Z,20.55
2022-11-08T04:02:37.324Z,23.95
2022-11-08T04:05:05.028Z,17.13
2022-11-08T04:07:31.539Z,20.65
2022-11-08T04:09:57.966Z,18.73
2022-11-08T04:12:42.829Z,23.75
2022-11-08T04:15:16.554Z,19.52
2022-11-08T04:18:04.515Z,16.63
2022-11-08T04:20:50.317Z,13.23
2022-11-08T04:23:17.925Z,18.48
2022-11-08T04:25:45.062Z,17.70
2022-11-08T04:28:12.010Z,21.35
2022-11-08T04:30:38.381Z,21.27
2022-11-08T04:33:05.212Z,17.85
2022-11-08T04:35:32.127Z,17.30
2022-11-08T04:38:02.146Z,16.20
2022-11-08T04:40:31.042Z,20.48
2022-11-08T04:42:57.490Z,15.38
2022-11-08T04:45:23.904Z,13.55
2022-11-08T04:47:50.260Z,21.48
2022-11-08T04:50:16.702Z,17.05
2022-11-08T04:52:43.714Z,24.13
2022-11-08T04:55:10.471Z,14.57
2022-11-08T04:57:36.815Z,15.77
2022-11-08T05:00:04.156Z,20.65
2022-11-08T05:02:30.608Z,15.73
2022-11-08T05:04:57.948Z,23.15
2022-11-08T05:07:24.427Z,16.70
2022-11-08T05:09:50.911Z,19.48
2022-11-08T05:12:17.257Z,19.60
2022-11-08T05:14:43.599Z,17.70
2022-11-08T05:17:09.942Z,22.08
2022-11-08T05:19:54.809Z,22.77
2022-11-08T05:22:39.796Z,16.48
2022-11-08T05:25:06.701Z,15.82
2022-11-08T05:27:34.126Z,21.80
2022-11-08T05:30:00.531Z,20.70
2022-11-08T05:32:27.051Z,17.27
2022-11-08T05:34:53.464Z,17.05
2022-11-08T05:37:19.896Z,16.80
2022-11-08T05:39:46.272Z,18.00
2022-11-08T05:42:12.673Z,23.15
2022-11-08T05:44:39.005Z,18.55
2022-11-08T05:47:05.478Z,18.83
2022-11-08T05:49:31.873Z,19.67
2022-11-08T05:51:58.527Z,19.95
2022-11-08T05:54:24.870Z,24.42
2022-11-08T05:56:51.244Z,18.08
2022-11-08T05:59:17.609Z,21.58
2022-11-08T06:01:44.168Z,19.45
2022-11-08T06:04:10.702Z,19.90
2022-11-08T06:06:37.054Z,17.70
2022-11-08T06:09:03.527Z,16.95
2022-11-08T06:11:29.876Z,16.60
2022-11-08T06:13:56.538Z,15.30
2022-11-08T06:16:25.009Z,19.95
2022-11-08T06:18:51.495Z,14.38
2022-11-08T06:21:20.138Z,17.75
2022-11-08T06:23:47.403Z,19.08
2022-11-08T06:26:14.141Z,13.88
2022-11-08T06:28:40.538Z,19.50
2022-11-08T06:31:08.010Z,12.60
2022-11-08T06:33:34.788Z,20.08
2022-11-08T06:36:01.597Z,14.73
2022-11-08T06:38:28.528Z,17.23
2022-11-08T06:40:54.947Z,16.55
2022-11-08T06:43:21.733Z,19.27
2022-11-08T06:45:48.520Z,16.38
2022-11-08T06:48:15.113Z,15.90
2022-11-08T06:50:42.437Z,18.35
2022-11-08T06:53:11.865Z,19.90
2022-11-08T06:55:38.328Z,14.57
2022-11-08T06:58:04.889Z,19.85
2022-11-08T07:00:31.470Z,14.43
2022-11-08T07:03:00.460Z,15.32
2022-11-08T07:05:28.249Z,15.90
2022-11-08T07:07:56.919Z,19.20
2022-11-08T07:10:25.514Z,17.30
2022-11-08T07:13:06.492Z,12.75
2022-11-08T07:15:34.960Z,12.98
2022-11-08T07:18:07.365Z,15.50
2022-11-08T07:20:34.606Z,17.30
2022-11-08T07:23:01.346Z,20.52
2022-11-08T07:25:29.512Z,17.13
2022-11-08T07:28:02.182Z,14.70
2022-11-08T07:30:28.914Z,13.20
2022-11-08T07:32:56.525Z,14.50
2022-11-08T07:35:24.149Z,12.52
2022-11-08T07:37:50.832Z,17.63
2022-11-08T07:40:17.246Z,17.45
2022-11-08T07:43:10.222Z,15.38
2022-11-08T07:45:29.968Z,18.83
2022-11-08T07:48:10.619Z,17.95
2022-11-08T07:50:38.941Z,18.00
2022-11-08T07:53:05.393Z,14.32
2022-11-08T07:55:31.787Z,16.83
2022-11-08T07:58:03.886Z,15.60
2022-11-08T08:00:31.640Z,16.13
2022-11-08T08:02:59.605Z,22.08
2022-11-08T08:05:27.560Z,17.67
2022-11-08T08:07:57.812Z,13.93
2022-11-08T08:12:50.659Z,18.80
2022-11-08T08:15:18.070Z,13.68
2022-11-08T08:17:44.603Z,13.75
2022-11-08T08:20:12.067Z,17.73
2022-11-08T08:22:49.742Z,15.93
2022-11-08T08:25:17.350Z,13.52
2022-11-08T08:27:51.210Z,14.13
2022-11-08T08:30:18.571Z,17.63
2022-11-08T08:32:53.547Z,12.27
2022-11-08T08:35:28.959Z,17.55
2022-11-08T08:37:58.972Z,13.90
2022-11-08T08:40:25.608Z,19.65
2022-11-08T08:42:52.038Z,14.55
2022-11-08T08:45:18.417Z,13.23
2022-11-08T08:47:45.092Z,12.82
2022-11-08T08:50:11.780Z,13.68
2022-11-08T08:52:38.182Z,15.35
2022-11-08T08:55:04.954Z,15.70
2022-11-08T08:57:31.313Z,14.40
2022-11-08T09:02:44.738Z,12.68
2022-11-08T09:05:13.271Z,14.02
2022-11-08T09:07:40.520Z,14.95
2022-11-08T09:10:08.764Z,12.45
2022-11-08T09:12:35.550Z,14.93
2022-11-08T09:15:02.655Z,12.98
2022-11-08T09:17:29.246Z,14.15
2022-11-08T09:19:57.377Z,16.73
2022-11-08T09:22:24.299Z,14.57
2022-11-08T09:24:51.298Z,26.98
2022-11-08T09:27:17.701Z,13.00
2022-11-08T09:29:44.087Z,14.65
2022-11-08T09:32:11.465Z,20.92
2022-11-08T09:34:37.881Z,13.68
2022-11-08T09:37:04.294Z,13.18
2022-11-08T09:39:30.715Z,15.20
2022-11-08T09:42:24.249Z,16.83
2022-11-08T09:45:24.444Z,17.23
2022-11-08T09:50:46.290Z,13.32
2022-11-08T09:53:24.012Z,15.20
2022-11-08T09:55:56.816Z,15.98
2022-11-08T09:58:35.461Z,18.33
2022-11-08T10:01:03.025Z,12.50
2022-11-08T10:03:29.908Z,14.82
2022-11-08T10:06:29.312Z,15.00
2022-11-08T10:09:30.166Z,17.20
2022-11-08T10:12:09.419Z,11.93
2022-11-08T10:15:00.746Z,13.27
2022-11-08T10:17:54.874Z,11.43
2022-11-08T10:20:35.290Z,15.23
2022-11-08T10:23:07.751Z,12.57
2022-11-08T10:25:45.300Z,14.52
2022-11-08T10:28:17.918Z,14.75
2022-11-08T10:30:48.618Z,13.95
2022-11-08T10:33:22.397Z,22.30
2022-11-08T10:36:01.771Z,14.18
2022-11-08T10:38:35.963Z,16.40
2022-11-08T10:41:44.139Z,21.02
2022-11-08T10:44:19.933Z,13.38
2022-11-08T10:46:53.837Z,14.43
2022-11-08T10:49:22.534Z,14.30
2022-11-08T10:51:55.512Z,15.50
2022-11-08T10:54:50.060Z,17.55
2022-11-08T10:57:31.535Z,13.65
2022-11-08T11:00:27.450Z,11.95
2022-11-08T11:02:55.818Z,10.73
2022-11-08T11:05:36.995Z,17.13
2022-11-08T11:08:05.226Z,14.93
2022-11-08T11:10:33.588Z,11.43
2022-11-08T11:13:01.643Z,10.48
2022-11-08T11:15:46.626Z,12.88
2022-11-08T11:18:31.324Z,14.57
2022-11-08T11:21:13.525Z,12.77
2022-11-08T11:23:46.975Z,11.07
2022-11-08T11:26:34.475Z,12.88
2022-11-08T11:29:03.794Z,10.63
2022-11-08T11:31:32.473Z,10.73
2022-11-08T11:33:59.758Z,13.00
2022-11-08T11:36:30.031Z,9.82
2022-11-08T11:39:18.812Z,10.15
2022-11-08T11:42:17.796Z,12.63
2022-11-08T11:45:05.650Z,10.73
2022-11-08T11:47:33.898Z,11.77
2022-11-08T11:50:10.586Z,14.23
2022-11-08T11:52:36.994Z,10.73
2022-11-08T11:55:03.458Z,12.75
2022-11-08T11:57:48.267Z,10.13
2022-11-08T12:00:15.935Z,11.07
2022-11-08T12:03:11.649Z,13.98
2022-11-08T12:05:58.297Z,10.55
2022-11-08T12:08:51.521Z,10.60
2022-11-08T12:11:55.655Z,10.90
2022-11-08T12:14:35.750Z,10.27
2022-11-08T12:20:04.995Z,10.23
2022-11-08T12:22:43.560Z,10.95
2022-11-08T12:25:25.080Z,12.82
2022-11-08T12:27:58.120Z,11.43
2022-11-08T12:30:51.017Z,11.80
2022-11-08T12:33:20.953Z,10.02
2022-11-08T12:36:02.518Z,9.88
2022-11-08T12:38:56.512Z,10.32
2022-11-08T12:41:44.418Z,12.23
2022-11-08T12:44:20.200Z,10.15
2022-11-08T12:47:16.415Z,10.65
2022-11-08T12:50:09.573Z,14.48
2022-11-08T12:52:44.716Z,10.13
2022-11-08T12:55:23.892Z,10.30
2022-11-08T12:57:53.866Z,11.10
2022-11-08T13:00:20.965Z,10.32
2022-11-08T13:03:06.341Z,13.00
2022-11-08T13:05:39.196Z,9.93
2022-11-08T13:08:23.348Z,13.70
2022-11-08T13:11:11.522Z,10.27
2022-11-08T13:13:50.021Z,14.90
2022-11-08T13:16:22.256Z,10.05
2022-11-08T13:18:53.204Z,12.95
2022-11-08T13:21:25.900Z,10.40
2022-11-08T13:23:53.769Z,9.75
2022-11-08T13:26:26.302Z,10.27
2022-11-08T13:28:53.392Z,10.23
2022-11-08T13:31:26.624Z,17.10
2022-11-08T13:34:11.881Z,9.43
2022-11-08T13:37:02.787Z,11.27
2022-11-08T13:40:02.820Z,10.20
2022-11-08T13:42:30.943Z,10.15
2022-11-08T13:45:10.977Z,10.73
2022-11-08T13:47:38.443Z,10.40
2022-11-08T13:50:29.574Z,10.63
2022-11-08T13:53:20.541Z,9.90
2022-11-08T13:55:49.972Z,10.35
2022-11-08T13:58:39.652Z,14.20
2022-11-08T14:01:18.392Z,10.40
2022-11-08T14:03:47.683Z,11.13
2022-11-08T14:06:23.660Z,10.70
2022-11-08T14:08:57.882Z,12.82
2022-11-08T14:11:53.347Z,10.07
2022-11-08T14:14:44.942Z,11.18
2022-11-08T14:17:52.252Z,11.10
2022-11-08T14:20:41.572Z,10.98
2022-11-08T14:23:27.515Z,10.57
2022-11-08T14:26:01.251Z,10.48
2022-11-08T14:28:36.629Z,10.70
2022-11-08T14:31:27.377Z,11.07
2022-11-08T14:33:55.071Z,11.02
2022-11-08T14:36:22.643Z,11.65
2022-11-08T14:38:57.919Z,10.20
2022-11-08T14:41:26.874Z,12.32
2022-11-08T14:43:55.592Z,11.15
2022-11-08T14:46:30.920Z,10.63
2022-11-08T14:48:58.035Z,11.05
2022-11-08T14:51:26.260Z,10.20
2022-11-08T14:53:54.804Z,15.13
2022-11-08T14:56:24.311Z,10.13
2022-11-08T14:58:52.892Z,11.00
2022-11-08T15:01:25.723Z,11.40
2022-11-08T15:04:20.715Z,10.13
2022-11-08T15:06:51.362Z,10.15
2022-11-08T15:09:27.363Z,11.32
2022-11-08T15:11:59.686Z,11.02
2022-11-08T15:14:30.091Z,10.43
2022-11-08T15:17:02.887Z,12.75
2022-11-08T15:19:34.510Z,10.90
2022-11-08T15:22:22.543Z,10.70
2022-11-08T15:25:00.487Z,10.63
2022-11-08T15:27:27.337Z,9.95
2022-11-08T15:30:01.320Z,10.98
2022-11-08T15:32:33.598Z,10.20
2022-11-08T15:35:00.026Z,10.73
2022-11-08T15:37:38.357Z,11.07
2022-11-08T15:40:20.182Z,9.77
2022-11-08T15:42:50.066Z,9.63
2022-11-08T15:45:16.357Z,10.50
2022-11-08T15:47:42.641Z,9.98
2022-11-08T15:50:23.499Z,10.30
2022-11-08T15:52:55.110Z,10.13
2022-11-08T15:55:24.201Z,20.40
2022-11-08T15:57:51.245Z,11.15
2022-11-08T16:00:26.516Z,9.98
2022-11-08T16:02:53.019Z,9.90
2022-11-08T16:05:25.075Z,11.27
2022-11-08T16:07:52.168Z,9.77
2022-11-08T16:10:31.237Z,9.95
2022-11-08T16:13:00.782Z,10.93
2022-11-08T16:15:30.179Z,9.50
2022-11-08T16:17:57.061Z,11.88
2022-11-08T16:20:33.903Z,9.32
2022-11-08T16:23:02.698Z,10.02
2022-11-08T16:25:33.906Z,9.95
2022-11-08T16:28:17.668Z,9.80
2022-11-08T16:30:46.795Z,9.55
2022-11-08T16:33:20.134Z,9.18
2022-11-08T16:35:46.882Z,9.32
2022-11-08T16:38:13.303Z,10.85
2022-11-08T16:40:42.306Z,9.48
2022-11-08T16:43:12.008Z,10.15
2022-11-08T16:46:03.663Z,10.10
2022-11-08T16:48:26.963Z,11.25
2022-11-08T16:51:00.394Z,12.20
2022-11-08T16:53:27.054Z,10.75
2022-11-08T16:55:53.501Z,10.50
2022-11-08T16:58:20.189Z,11.60
2022-11-08T17:00:46.896Z,10.07
2022-11-08T17:03:20.871Z,10.75
2022-11-08T17:05:47.770Z,12.40
2022-11-08T17:08:14.385Z,10.75
2022-11-08T17:10:41.967Z,11.82
2022-11-08T17:13:13.158Z,16.90
2022-11-08T17:15:39.608Z,10.00
2022-11-08T17:18:06.276Z,10.38
2022-11-08T17:20:32.710Z,9.55
2022-11-08T17:22:59.094Z,10.68
2022-11-08T17:25:25.683Z,10.55
2022-11-08T17:27:52.927Z,10.55
2022-11-08T17:30:25.417Z,10.82
2022-11-08T17:32:53.640Z,10.43
2022-11-08T17:35:20.194Z,10.93
2022-11-08T17:37:46.620Z,10.20
2022-11-08T17:40:13.049Z,9.70
2022-11-08T17:42:39.553Z,10.50
2022-11-08T17:45:08.749Z,10.38
2022-11-08T17:47:36.333Z,10.43
2022-11-08T17:50:03.160Z,10.07
2022-11-08T17:52:29.575Z,10.25
2022-11-08T17:54:55.980Z,10.10
2022-11-08T17:57:22.480Z,10.13
2022-11-08T17:59:49.050Z,9.95
2022-11-08T18:02:15.583Z,10.18
2022-11-08T18:04:42.024Z,10.30
2022-11-08T18:07:08.616Z,10.55
2022-11-08T18:09:35.291Z,10.57
2022-11-08T18:12:01.633Z,10.90
2022-11-08T18:14:28.976Z,9.52
2022-11-08T18:16:56.159Z,9.82
2022-11-08T18:19:23.012Z,9.88
2022-11-08T18:21:49.407Z,10.73
2022-11-08T18:24:16.599Z,11.73
2022-11-08T18:26:43.068Z,10.10
2022-11-08T18:29:09.680Z,12.27
2022-11-08T18:31:36.806Z,14.60
2022-11-08T18:34:03.458Z,10.43
2022-11-08T18:36:30.916Z,11.07
2022-11-08T18:38:59.817Z,11.10
2022-11-08T18:41:29.495Z,13.38
2022-11-08T18:43:57.533Z,12.10
2022-11-08T18:46:26.069Z,10.07
2022-11-08T18:48:53.105Z,10.85
2022-11-08T18:51:21.908Z,10.82
2022-11-08T18:53:48.739Z,10.57
2022-11-08T18:56:16.196Z,10.70
2022-11-08T18:58:44.310Z,11.63
2022-11-08T19:01:10.880Z,10.93
2022-11-08T19:03:37.709Z,11.45
2022-11-08T19:06:04.485Z,10.70
2022-11-08T19:08:31.608Z,10.40
2022-11-08T19:11:00.501Z,10.50
2022-11-08T19:13:28.985Z,10.13
2022-11-08T19:16:06.507Z,11.35
2022-11-08T19:18:34.566Z,9.90
2022-11-08T19:21:06.578Z,10.52
2022-11-08T19:23:33.564Z,9.88
2022-11-08T19:26:10.167Z,9.90
2022-11-08T19:28:38.996Z,10.15
2022-11-08T19:31:06.344Z,11.68
2022-11-08T19:33:33.707Z,10.73
2022-11-08T19:36:02.131Z,11.10
2022-11-08T19:38:28.514Z,10.73
2022-11-08T19:40:54.861Z,10.95
2022-11-08T19:43:21.509Z,10.82
2022-11-08T19:45:53.278Z,10.18
2022-11-08T19:48:20.521Z,10.23
2022-11-08T19:50:47.719Z,10.57
2022-11-08T19:53:14.499Z,11.55
2022-11-08T19:55:40.845Z,11.38
2022-11-08T19:58:07.343Z,10.88
2022-11-08T20:00:33.794Z,10.38
2022-11-08T20:03:00.193Z,11.70
2022-11-08T20:05:28.405Z,10.65
2022-11-08T20:07:54.768Z,10.20
2022-11-08T20:10:21.304Z,10.55
2022-11-08T20:12:48.000Z,10.73
2022-11-08T20:15:14.722Z,11.57
2022-11-08T20:17:41.136Z,10.45
2022-11-08T20:20:08.026Z,11.23
2022-11-08T20:22:34.489Z,11.75
2022-11-08T20:25:00.870Z,10.88
2022-11-08T20:27:27.300Z,9.55
2022-11-08T20:29:53.855Z,10.55
2022-11-08T20:32:20.324Z,10.50
2022-11-08T20:34:46.801Z,10.68
2022-11-08T20:37:14.623Z,10.70
2022-11-08T20:39:41.171Z,11.15
2022-11-08T20:42:07.515Z,10.70
2022-11-08T20:44:33.919Z,11.02
2022-11-08T20:47:05.535Z,9.73
2022-11-08T20:49:32.832Z,9.65
2022-11-08T20:51:59.383Z,10.02
2022-11-08T20:54:25.758Z,9.88
2022-11-08T20:56:52.339Z,11.65
2022-11-08T20:59:19.273Z,10.32
2022-11-08T21:01:45.739Z,10.57
2022-11-08T21:04:12.639Z,10.75
2022-11-08T21:06:39.197Z,9.93
2022-11-08T21:09:32.416Z,10.55
2022-11-08T21:11:53.373Z,10.75
2022-11-08T21:14:19.801Z,10.20
2022-11-08T21:17:15.108Z,10.32
2022-11-08T21:19:32.524Z,10.43
2022-11-08T21:22:14.997Z,10.05
2022-11-08T21:24:43.067Z,10.50
2022-11-08T21:27:10.486Z,9.98
2022-11-08T21:29:37.130Z,10.98
2022-11-08T21:32:04.407Z,10.35
2022-11-08T21:34:32.483Z,10.18
2022-11-08T21:36:59.513Z,10.07
2022-11-08T21:39:26.177Z,9.93
2022-11-08T21:41:52.573Z,11.27
2022-11-08T21:44:20.354Z,10.13
2022-11-08T21:46:46.839Z,10.10
2022-11-08T21:49:13.746Z,10.20
2022-11-08T21:51:40.224Z,9.88
2022-11-08T21:54:06.697Z,10.88
2022-11-08T21:56:34.752Z,12.63
2022-11-08T21:59:02.973Z,12.68
2022-11-08T22:01:30.931Z,9.75
2022-11-08T22:03:58.932Z,9.95
2022-11-08T22:06:25.631Z,10.88
2022-11-08T22:08:52.114Z,9.68
2022-11-08T22:11:18.660Z,9.45
2022-11-08T22:13:45.042Z,9.90
2022-11-08T22:16:11.429Z,10.15
2022-11-08T22:21:40.773Z,10.57
2022-11-08T22:24:10.116Z,10.40
2022-11-08T22:26:37.427Z,10.35
2022-11-08T22:29:04.077Z,10.57
2022-11-08T22:31:31.341Z,10.75
2022-11-08T22:33:58.561Z,11.60
2022-11-08T22:36:24.972Z,10.38
2022-11-08T22:38:51.598Z,10.90
2022-11-08T22:41:20.215Z,10.48
2022-11-08T22:43:47.238Z,10.27
2022-11-08T22:46:13.937Z,10.50
2022-11-08T22:48:40.743Z,9.82
2022-11-08T22:51:07.649Z,10.48
2022-11-08T22:53:34.125Z,14.45
2022-11-08T22:56:00.916Z,11.57
2022-11-08T22:58:28.553Z,10.15
2022-11-08T23:00:55.486Z,10.18
2022-11-08T23:03:22.921Z,10.25
2022-11-08T23:05:50.985Z,10.25
2022-11-08T23:08:19.261Z,9.98
2022-11-08T23:11:04.953Z,9.90
2022-11-08T23:13:50.387Z,9.93
2022-11-08T23:16:32.258Z,9.60
2022-11-08T23:19:18.864Z,9.35
2022-11-08T23:22:04.111Z,10.40
2022-11-08T23:24:31.578Z,10.32
2022-11-08T23:27:20.685Z,15.43
2022-11-08T23:30:05.919Z,13.07
2022-11-08T23:32:33.281Z,9.48
2022-11-08T23:34:59.685Z,13.23
2022-11-08T23:37:27.165Z,10.30
2022-11-08T23:40:12.502Z,9.70
2022-11-08T23:42:57.628Z,9.93
2022-11-08T23:45:24.052Z,10.32
2022-11-08T23:47:51.681Z,10.82
2022-11-08T23:50:18.164Z,10.02
2022-11-08T23:52:44.759Z,10.10
2022-11-08T23:55:11.155Z,10.30
2022-11-08T23:57:37.585Z,9.80
